Shin Mei Maru — JG5617 — position and weather

sailwx.info

Track history (hours):
 
Tides and Currents Weather Stations Pressure Air Temp Water Temp Dewpoint Dewpoint Depression Visibility Wind Speed Wind Dir Waves Ship Positions

Shin Mei Maru

Last reported at 2015-Jul-29 22:22 UTC. Time now 2015-Aug-01 20:16 UTC.
Position N 37°03' E 141°09'.

Length 160 m; draft 6.8 m.

Type: Cargo ship. MMSI: 431100922.

Date/timePositionNaut miles runAvg speedWind from/ knotsBaromVisibWave heightAir tempDewpointWater temp
2015-Jul-29 22:22N 37°03' E 141°09'1518.2
2015-Jul-29 21:33N 36°49' E 141°07'1818.1
2015-Jul-29 20:33N 36°30' E 141°05'1818.1
2015-Jul-29 19:33N 36°12' E 141°03'1818.2
2015-Jul-29 18:34N 35°54' E 141°01'1817.6
2015-Jul-29 17:33N 35°37' E 140°57'1818.0
2015-Jul-29 16:34N 35°23' E 140°43'1918.5
2015-Jul-29 15:33N 35°08' E 140°29'1818.5
2015-Jul-29 14:33N 34°57' E 140°12'1818.5
2015-Jul-29 13:34N 34°51' E 139°50'1717.0
2015-Jul-29 12:33N 35°08' E 139°44'1414.2
2015-Jul-29 11:34N 35°22' E 139°42'1414.3
2015-Jul-29 10:34N 35°35' E 139°47'3 2.8
2015-Jul-29 09:33N 35°38' E 139°46'0 0.0
2015-Jul-29 08:30N 35°38' E 139°46'0 0.0
2015-Jul-29 07:33N 35°38' E 139°46'0 0.0
2015-Jul-29 06:33N 35°38' E 139°46'0 0.1
2015-Jul-29 05:33N 35°38' E 139°46'1212.4
2015-Jul-29 04:33N 35°26' E 139°48'1211.8
2015-Jul-29 03:33N 35°14' E 139°47'1817.8
2015-Jul-29 02:33N 34°59' E 139°35'23817.6
2015-Jul-28 13:06N 33°54' E 134°58'1120.1
2015-Jul-28 12:33N 34°04' E 134°58'1918.9
2015-Jul-28 11:33N 34°23' E 134°60'1818.5
2015-Jul-28 10:33N 34°34' E 135°18'6 5.9
2015-Jul-28 09:30N 34°37' E 135°25'0 0.0
2015-Jul-28 08:30N 34°37' E 135°25'0 0.0
2015-Jul-28 07:06N 34°37' E 135°25'0 0.0
2015-Jul-28 06:30N 34°37' E 135°25'0 0.0
2015-Jul-28 05:24N 34°37' E 135°25'0 0.0
2015-Jul-28 04:18N 34°37' E 135°25'0 0.0
2015-Jul-28 01:30N 34°37' E 135°25'8 8.6
2015-Jul-28 00:33N 34°32' E 135°17'1817.9
2015-Jul-27 23:34N 34°19' E 135°01'1817.6
2015-Jul-27 22:33N 34°02' E 134°59'22514.6
2015-Jul-27 07:10N 34°55' E 139°24'1016.1
2015-Jul-27 06:33N 35°01' E 139°34'1616.2
2015-Jul-27 05:33N 35°13' E 139°46'1312.9
2015-Jul-27 04:33N 35°26' E 139°46'1111.5
2015-Jul-27 03:33N 35°38' E 139°46'0 0.2
2015-Jul-27 02:33N 35°38' E 139°46'0 0.0
2015-Jul-27 01:33N 35°38' E 139°46'0 0.0
2015-Jul-27 00:33N 35°38' E 139°46'0 0.0
2015-Jul-26 23:33N 35°38' E 139°46'0 0.0
2015-Jul-26 22:33N 35°38' E 139°46'6 5.7
2015-Jul-26 21:33N 35°34' E 139°50'1413.9
2015-Jul-26 20:33N 35°20' E 139°45'1312.7
2015-Jul-26 19:33N 35°08' E 139°47'1514.9
2015-Jul-26 18:33N 34°53' E 139°47'1616.1
2015-Jul-26 17:33N 34°56' E 140°07'1818.1
2015-Jul-26 16:33N 35°05' E 140°26'1817.8
2015-Jul-26 15:33N 35°19' E 140°39'1717.4
2015-Jul-26 14:33N 35°33' E 140°52'1717.4
2015-Jul-26 13:33N 35°49' E 141°01'1817.5
2015-Jul-26 12:33N 36°06' E 141°02'1817.5
2015-Jul-26 11:33N 36°24' E 141°04'1917.4
2015-Jul-26 10:27N 36°43' E 141°07'  
2015-Jul-22 14:33N 34°59' E 140°16'1818.3
2015-Jul-22 13:34N 34°50' E 139°57'1616.2
2015-Jul-22 12:33N 35°01' E 139°43'1515.6
2015-Jul-22 11:33N 35°17' E 139°45'1313.0
2015-Jul-22 10:33N 35°29' E 139°50'10 9.7
2015-Jul-22 09:33N 35°38' E 139°46'0 0.0
2015-Jul-22 08:29N 35°38' E 139°46'0 0.0
2015-Jul-22 07:30N 35°38' E 139°46'0 0.0
2015-Jul-22 06:32N 35°38' E 139°46'0 0.5
2015-Jul-22 05:33N 35°38' E 139°46'1313.1
2015-Jul-22 04:33N 35°24' E 139°47'1212.0
2015-Jul-22 03:34N 35°12' E 139°47'2020.0
2015-Jul-22 02:33N 34°57' E 139°31'23417.6
2015-Jul-21 13:15N 33°53' E 134°58'1318.4
2015-Jul-21 12:34N 34°06' E 134°58'1818.1
2015-Jul-21 11:33N 34°24' E 135°03'1918.9
2015-Jul-21 10:33N 34°35' E 135°21'4 3.3
2015-Jul-21 09:28N 34°37' E 135°25'0 0.0
2015-Jul-21 08:28N 34°37' E 135°25'0 0.0
2015-Jul-21 07:22N 34°37' E 135°25'0 0.0
2015-Jul-21 06:28N 34°37' E 135°25'0 0.0
2015-Jul-21 05:28N 34°37' E 135°25'0 0.0
2015-Jul-21 04:16N 34°37' E 135°25'0 0.0
2015-Jul-21 03:28N 34°37' E 135°25'0 0.0
2015-Jul-21 02:16N 34°37' E 135°25'3 4.4
2015-Jul-21 01:33N 34°36' E 135°21'2019.8
2015-Jul-21 00:33N 34°22' E 135°04'1919.4
2015-Jul-20 23:33N 34°03' E 134°59'15615.5
2015-Jul-20 13:32N 34°13' E 138°07'6716.9
2015-Jul-20 09:33N 34°49' E 139°16'1615.8
2015-Jul-20 08:33N 34°59' E 139°30'1817.9
2015-Jul-20 07:33N 35°12' E 139°46'1313.0
2015-Jul-20 06:33N 35°25' E 139°43'1212.4
2015-Jul-20 05:33N 35°37' E 139°46'1 0.8
2015-Jul-20 04:32N 35°38' E 139°46'0 0.0
2015-Jul-20 03:32N 35°38' E 139°46'0 0.0
2015-Jul-20 02:32N 35°38' E 139°46'0 0.0
2015-Jul-20 01:32N 35°38' E 139°46'0 0.0
2015-Jul-20 00:29N 35°38' E 139°46'0 0.0
2015-Jul-19 23:32N 35°38' E 139°46'0 0.0
2015-Jul-19 22:32N 35°38' E 139°46'  
Track history (hours):
 
Tides and Currents Weather Stations Pressure Air Temp Water Temp Dewpoint Dewpoint Depression Visibility Wind Speed Wind Dir Waves Ship Positions

Shin Mei Maru

Last reported at 2015-Jul-29 22:22 UTC. Time now 2015-Aug-01 20:16 UTC.
Position N 37°03' E 141°09'.

Length 160 m; draft 6.8 m.

Type: Cargo ship. MMSI: 431100922.

Date/timePositionNaut miles runAvg speedWind from/ knotsBaromVisibWave heightAir tempDewpointWater temp
2015-Jul-29 22:22N 37°03' E 141°09'1518.2
2015-Jul-29 21:33N 36°49' E 141°07'1818.1
2015-Jul-29 20:33N 36°30' E 141°05'1818.1
2015-Jul-29 19:33N 36°12' E 141°03'1818.2
2015-Jul-29 18:34N 35°54' E 141°01'1817.6
2015-Jul-29 17:33N 35°37' E 140°57'1818.0
2015-Jul-29 16:34N 35°23' E 140°43'1918.5
2015-Jul-29 15:33N 35°08' E 140°29'1818.5
2015-Jul-29 14:33N 34°57' E 140°12'1818.5
2015-Jul-29 13:34N 34°51' E 139°50'1717.0
2015-Jul-29 12:33N 35°08' E 139°44'1414.2
2015-Jul-29 11:34N 35°22' E 139°42'1414.3
2015-Jul-29 10:34N 35°35' E 139°47'3 2.8
2015-Jul-29 09:33N 35°38' E 139°46'0 0.0
2015-Jul-29 08:30N 35°38' E 139°46'0 0.0
2015-Jul-29 07:33N 35°38' E 139°46'0 0.0
2015-Jul-29 06:33N 35°38' E 139°46'0 0.1
2015-Jul-29 05:33N 35°38' E 139°46'1212.4
2015-Jul-29 04:33N 35°26' E 139°48'1211.8
2015-Jul-29 03:33N 35°14' E 139°47'1817.8
2015-Jul-29 02:33N 34°59' E 139°35'23817.6
2015-Jul-28 13:06N 33°54' E 134°58'1120.1
2015-Jul-28 12:33N 34°04' E 134°58'1918.9
2015-Jul-28 11:33N 34°23' E 134°60'1818.5
2015-Jul-28 10:33N 34°34' E 135°18'6 5.9
2015-Jul-28 09:30N 34°37' E 135°25'0 0.0
2015-Jul-28 08:30N 34°37' E 135°25'0 0.0
2015-Jul-28 07:06N 34°37' E 135°25'0 0.0
2015-Jul-28 06:30N 34°37' E 135°25'0 0.0
2015-Jul-28 05:24N 34°37' E 135°25'0 0.0
2015-Jul-28 04:18N 34°37' E 135°25'0 0.0
2015-Jul-28 01:30N 34°37' E 135°25'8 8.6
2015-Jul-28 00:33N 34°32' E 135°17'1817.9
2015-Jul-27 23:34N 34°19' E 135°01'1817.6
2015-Jul-27 22:33N 34°02' E 134°59'22514.6
2015-Jul-27 07:10N 34°55' E 139°24'1016.1
2015-Jul-27 06:33N 35°01' E 139°34'1616.2
2015-Jul-27 05:33N 35°13' E 139°46'1312.9
2015-Jul-27 04:33N 35°26' E 139°46'1111.5
2015-Jul-27 03:33N 35°38' E 139°46'0 0.2
2015-Jul-27 02:33N 35°38' E 139°46'0 0.0
2015-Jul-27 01:33N 35°38' E 139°46'0 0.0
2015-Jul-27 00:33N 35°38' E 139°46'0 0.0
2015-Jul-26 23:33N 35°38' E 139°46'0 0.0
2015-Jul-26 22:33N 35°38' E 139°46'6 5.7
2015-Jul-26 21:33N 35°34' E 139°50'1413.9
2015-Jul-26 20:33N 35°20' E 139°45'1312.7
2015-Jul-26 19:33N 35°08' E 139°47'1514.9
2015-Jul-26 18:33N 34°53' E 139°47'1616.1
2015-Jul-26 17:33N 34°56' E 140°07'1818.1
2015-Jul-26 16:33N 35°05' E 140°26'1817.8
2015-Jul-26 15:33N 35°19' E 140°39'1717.4
2015-Jul-26 14:33N 35°33' E 140°52'1717.4
2015-Jul-26 13:33N 35°49' E 141°01'1817.5
2015-Jul-26 12:33N 36°06' E 141°02'1817.5
2015-Jul-26 11:33N 36°24' E 141°04'1917.4
2015-Jul-26 10:27N 36°43' E 141°07'  
2015-Jul-22 14:33N 34°59' E 140°16'1818.3
2015-Jul-22 13:34N 34°50' E 139°57'1616.2
2015-Jul-22 12:33N 35°01' E 139°43'1515.6
2015-Jul-22 11:33N 35°17' E 139°45'1313.0
2015-Jul-22 10:33N 35°29' E 139°50'10 9.7
2015-Jul-22 09:33N 35°38' E 139°46'0 0.0
2015-Jul-22 08:29N 35°38' E 139°46'0 0.0
2015-Jul-22 07:30N 35°38' E 139°46'0 0.0
2015-Jul-22 06:32N 35°38' E 139°46'0 0.5
2015-Jul-22 05:33N 35°38' E 139°46'1313.1
2015-Jul-22 04:33N 35°24' E 139°47'1212.0
2015-Jul-22 03:34N 35°12' E 139°47'2020.0
2015-Jul-22 02:33N 34°57' E 139°31'23417.6
2015-Jul-21 13:15N 33°53' E 134°58'1318.4
2015-Jul-21 12:34N 34°06' E 134°58'1818.1
2015-Jul-21 11:33N 34°24' E 135°03'1918.9
2015-Jul-21 10:33N 34°35' E 135°21'4 3.3
2015-Jul-21 09:28N 34°37' E 135°25'0 0.0
2015-Jul-21 08:28N 34°37' E 135°25'0 0.0
2015-Jul-21 07:22N 34°37' E 135°25'0 0.0
2015-Jul-21 06:28N 34°37' E 135°25'0 0.0
2015-Jul-21 05:28N 34°37' E 135°25'0 0.0
2015-Jul-21 04:16N 34°37' E 135°25'0 0.0
2015-Jul-21 03:28N 34°37' E 135°25'0 0.0
2015-Jul-21 02:16N 34°37' E 135°25'3 4.4
2015-Jul-21 01:33N 34°36' E 135°21'2019.8
2015-Jul-21 00:33N 34°22' E 135°04'1919.4
2015-Jul-20 23:33N 34°03' E 134°59'15615.5
2015-Jul-20 13:32N 34°13' E 138°07'6716.9
2015-Jul-20 09:33N 34°49' E 139°16'1615.8
2015-Jul-20 08:33N 34°59' E 139°30'1817.9
2015-Jul-20 07:33N 35°12' E 139°46'1313.0
2015-Jul-20 06:33N 35°25' E 139°43'1212.4
2015-Jul-20 05:33N 35°37' E 139°46'1 0.8
2015-Jul-20 04:32N 35°38' E 139°46'0 0.0
2015-Jul-20 03:32N 35°38' E 139°46'0 0.0
2015-Jul-20 02:32N 35°38' E 139°46'0 0.0
2015-Jul-20 01:32N 35°38' E 139°46'0 0.0
2015-Jul-20 00:29N 35°38' E 139°46'0 0.0
2015-Jul-19 23:32N 35°38' E 139°46'0 0.0
2015-Jul-19 22:32N 35°38' E 139°46'  

Dump ship's entire track history